Marigot, Dominica
Current Conditions -  °F | °C
As of 6:00 AM on Friday 31 Oct 2014 (Local Time) from TDPD Reporting Station
Few Clouds Few Clouds  
Wind Chill: 75°   Ceiling: Unl
Heat Index: 75°   Visibility: 6mi
Dew Point: 73°   Wind: 7mph
Humidity: 94%   Direction: 280°W
Pressure: 29.83"   Gusts: NA
Location:  15.53°N, 61.29°W
Report Text: TDPD 311000Z 28006KT 9999 FEW017 24/23 Q1010
Loading
Personal Weather Stations






























Interactive Weather Map
Tropical Storm Tracking
New forecast layout! Learn more

10-Day Weather Forecast

Advertisements
Track Severe Weather on mobile